sensor_id;sensor_type;location;lat;lon;timestamp;P1;durP1;ratioP1;P2;durP2;ratioP2
11537;SDS011;50159;49.426;11.182;2023-08-17T00:01:32;4.87;;;4.57;;
11537;SDS011;50159;49.426;11.182;2023-08-17T00:03:59;5.30;;;4.80;;
11537;SDS011;50159;49.426;11.182;2023-08-17T00:06:26;4.80;;;4.50;;
11537;SDS011;50159;49.426;11.182;2023-08-17T00:08:53;5.70;;;5.20;;
11537;SDS011;50159;49.426;11.182;2023-08-17T00:11:19;5.50;;;4.90;;
11537;SDS011;50159;49.426;11.182;2023-08-17T00:13:46;5.10;;;4.70;;
11537;SDS011;50159;49.426;11.182;2023-08-17T00:16:13;5.03;;;4.73;;
11537;SDS011;50159;49.426;11.182;2023-08-17T00:18:40;5.30;;;4.90;;
11537;SDS011;50159;49.426;11.182;2023-08-17T00:21:07;5.27;;;4.73;;
11537;SDS011;50159;49.426;11.182;2023-08-17T00:23:34;5.60;;;5.30;;
11537;SDS011;50159;49.426;11.182;2023-08-17T00:26:00;5.13;;;4.63;;
11537;SDS011;50159;49.426;11.182;2023-08-17T00:28:27;4.97;;;4.67;;
11537;SDS011;50159;49.426;11.182;2023-08-17T00:30:54;5.00;;;4.67;;
11537;SDS011;50159;49.426;11.182;2023-08-17T00:33:20;4.50;;;4.30;;
11537;SDS011;50159;49.426;11.182;2023-08-17T00:35:47;4.67;;;4.37;;
11537;SDS011;50159;49.426;11.182;2023-08-17T00:38:14;5.33;;;4.83;;
11537;SDS011;50159;49.426;11.182;2023-08-17T00:40:41;4.63;;;4.27;;
11537;SDS011;50159;49.426;11.182;2023-08-17T00:43:08;5.73;;;4.97;;
11537;SDS011;50159;49.426;11.182;2023-08-17T00:45:35;5.23;;;4.93;;
11537;SDS011;50159;49.426;11.182;2023-08-17T00:48:02;5.10;;;4.67;;
11537;SDS011;50159;49.426;11.182;2023-08-17T00:50:31;4.97;;;4.60;;
11537;SDS011;50159;49.426;11.182;2023-08-17T00:52:58;5.10;;;4.80;;
11537;SDS011;50159;49.426;11.182;2023-08-17T00:55:25;5.13;;;4.73;;
11537;SDS011;50159;49.426;11.182;2023-08-17T00:57:53;5.50;;;5.10;;
11537;SDS011;50159;49.426;11.182;2023-08-17T01:00:21;4.93;;;4.63;;
11537;SDS011;50159;49.426;11.182;2023-08-17T01:02:50;5.07;;;4.57;;
11537;SDS011;50159;49.426;11.182;2023-08-17T01:05:17;5.00;;;4.60;;
11537;SDS011;50159;49.426;11.182;2023-08-17T01:07:44;4.70;;;4.40;;
11537;SDS011;50159;49.426;11.182;2023-08-17T01:10:11;4.80;;;4.50;;
11537;SDS011;50159;49.426;11.182;2023-08-17T01:12:42;5.27;;;4.97;;
11537;SDS011;50159;49.426;11.182;2023-08-17T01:15:16;4.90;;;4.60;;
11537;SDS011;50159;49.426;11.182;2023-08-17T01:17:58;5.73;;;4.90;;
11537;SDS011;50159;49.426;11.182;2023-08-17T01:20:31;5.00;;;4.70;;
11537;SDS011;50159;49.426;11.182;2023-08-17T01:23:04;5.40;;;5.00;;
11537;SDS011;50159;49.426;11.182;2023-08-17T01:25:31;5.70;;;5.23;;
11537;SDS011;50159;49.426;11.182;2023-08-17T01:28:03;5.60;;;5.13;;
11537;SDS011;50159;49.426;11.182;2023-08-17T01:30:35;4.70;;;4.40;;
11537;SDS011;50159;49.426;11.182;2023-08-17T01:33:31;5.83;;;5.03;;
11537;SDS011;50159;49.426;11.182;2023-08-17T01:36:28;5.67;;;5.37;;
11537;SDS011;50159;49.426;11.182;2023-08-17T01:38:57;5.53;;;5.13;;
11537;SDS011;50159;49.426;11.182;2023-08-17T01:41:26;5.30;;;4.87;;
11537;SDS011;50159;49.426;11.182;2023-08-17T01:43:54;5.50;;;5.10;;
11537;SDS011;50159;49.426;11.182;2023-08-17T01:46:24;5.43;;;5.03;;
11537;SDS011;50159;49.426;11.182;2023-08-17T01:48:57;5.47;;;5.07;;
11537;SDS011;50159;49.426;11.182;2023-08-17T01:51:24;4.73;;;4.43;;
11537;SDS011;50159;49.426;11.182;2023-08-17T01:53:51;9.10;;;5.80;;
11537;SDS011;50159;49.426;11.182;2023-08-17T01:56:18;6.47;;;5.10;;
11537;SDS011;50159;49.426;11.182;2023-08-17T01:58:45;5.53;;;5.13;;
11537;SDS011;50159;49.426;11.182;2023-08-17T02:01:11;4.87;;;4.47;;
11537;SDS011;50159;49.426;11.182;2023-08-17T02:03:38;4.87;;;4.57;;
11537;SDS011;50159;49.426;11.182;2023-08-17T02:06:05;5.73;;;5.23;;
11537;SDS011;50159;49.426;11.182;2023-08-17T02:08:33;5.93;;;5.33;;
11537;SDS011;50159;49.426;11.182;2023-08-17T02:11:00;5.63;;;4.93;;
11537;SDS011;50159;49.426;11.182;2023-08-17T02:13:27;5.17;;;4.70;;
11537;SDS011;50159;49.426;11.182;2023-08-17T02:15:54;6.30;;;5.40;;
11537;SDS011;50159;49.426;11.182;2023-08-17T02:18:20;5.23;;;4.83;;
11537;SDS011;50159;49.426;11.182;2023-08-17T02:20:47;7.37;;;5.17;;
11537;SDS011;50159;49.426;11.182;2023-08-17T02:23:14;5.40;;;5.10;;
11537;SDS011;50159;49.426;11.182;2023-08-17T02:25:41;5.50;;;5.10;;
11537;SDS011;50159;49.426;11.182;2023-08-17T02:28:07;5.33;;;5.00;;
11537;SDS011;50159;49.426;11.182;2023-08-17T02:30:37;5.53;;;5.13;;
11537;SDS011;50159;49.426;11.182;2023-08-17T02:33:04;5.70;;;5.20;;
11537;SDS011;50159;49.426;11.182;2023-08-17T02:35:31;5.73;;;5.40;;
11537;SDS011;50159;49.426;11.182;2023-08-17T02:37:57;5.43;;;5.03;;
11537;SDS011;50159;49.426;11.182;2023-08-17T02:40:24;5.70;;;5.20;;
11537;SDS011;50159;49.426;11.182;2023-08-17T02:42:51;5.53;;;5.13;;
11537;SDS011;50159;49.426;11.182;2023-08-17T02:45:17;6.37;;;5.07;;
11537;SDS011;50159;49.426;11.182;2023-08-17T02:47:44;4.87;;;4.57;;
11537;SDS011;50159;49.426;11.182;2023-08-17T02:50:11;5.50;;;5.10;;
11537;SDS011;50159;49.426;11.182;2023-08-17T02:52:37;5.37;;;5.07;;
11537;SDS011;50159;49.426;11.182;2023-08-17T02:55:04;5.37;;;4.97;;
11537;SDS011;50159;49.426;11.182;2023-08-17T02:57:31;6.53;;;6.03;;
11537;SDS011;50159;49.426;11.182;2023-08-17T02:59:58;6.03;;;5.43;;
11537;SDS011;50159;49.426;11.182;2023-08-17T03:02:25;5.27;;;4.93;;
11537;SDS011;50159;49.426;11.182;2023-08-17T03:04:52;5.67;;;5.20;;
11537;SDS011;50159;49.426;11.182;2023-08-17T03:07:19;5.63;;;5.30;;
11537;SDS011;50159;49.426;11.182;2023-08-17T03:09:45;5.43;;;5.00;;
11537;SDS011;50159;49.426;11.182;2023-08-17T03:12:12;5.37;;;5.00;;
11537;SDS011;50159;49.426;11.182;2023-08-17T03:14:39;5.47;;;5.07;;
11537;SDS011;50159;49.426;11.182;2023-08-17T03:17:06;5.67;;;5.30;;
11537;SDS011;50159;49.426;11.182;2023-08-17T03:19:32;5.30;;;5.00;;
11537;SDS011;50159;49.426;11.182;2023-08-17T03:21:59;5.37;;;4.97;;
11537;SDS011;50159;49.426;11.182;2023-08-17T03:24:26;5.73;;;5.33;;
11537;SDS011;50159;49.426;11.182;2023-08-17T03:26:52;5.83;;;5.37;;
11537;SDS011;50159;49.426;11.182;2023-08-17T03:29:19;5.53;;;5.23;;
11537;SDS011;50159;49.426;11.182;2023-08-17T03:31:45;5.37;;;5.07;;
11537;SDS011;50159;49.426;11.182;2023-08-17T03:34:12;5.33;;;5.00;;
11537;SDS011;50159;49.426;11.182;2023-08-17T03:36:39;5.20;;;4.90;;
11537;SDS011;50159;49.426;11.182;2023-08-17T03:39:06;5.80;;;5.40;;
11537;SDS011;50159;49.426;11.182;2023-08-17T03:41:33;5.77;;;5.37;;
11537;SDS011;50159;49.426;11.182;2023-08-17T03:44:00;6.23;;;5.53;;
11537;SDS011;50159;49.426;11.182;2023-08-17T03:46:26;5.63;;;5.23;;
11537;SDS011;50159;49.426;11.182;2023-08-17T03:48:53;4.87;;;4.47;;
11537;SDS011;50159;49.426;11.182;2023-08-17T03:51:20;5.50;;;5.00;;
11537;SDS011;50159;49.426;11.182;2023-08-17T03:53:46;4.97;;;4.73;;
11537;SDS011;50159;49.426;11.182;2023-08-17T03:56:13;5.27;;;4.87;;
11537;SDS011;50159;49.426;11.182;2023-08-17T03:58:40;5.37;;;4.87;;
11537;SDS011;50159;49.426;11.182;2023-08-17T04:01:07;5.57;;;5.17;;
11537;SDS011;50159;49.426;11.182;2023-08-17T04:03:34;5.87;;;5.40;;
11537;SDS011;50159;49.426;11.182;2023-08-17T04:06:04;5.83;;;5.37;;
11537;SDS011;50159;49.426;11.182;2023-08-17T04:08:32;5.50;;;5.13;;
11537;SDS011;50159;49.426;11.182;2023-08-17T04:10:59;5.83;;;5.43;;
11537;SDS011;50159;49.426;11.182;2023-08-17T04:13:26;5.27;;;4.97;;
11537;SDS011;50159;49.426;11.182;2023-08-17T04:15:53;5.53;;;5.23;;
11537;SDS011;50159;49.426;11.182;2023-08-17T04:18:20;5.57;;;5.17;;
11537;SDS011;50159;49.426;11.182;2023-08-17T04:20:46;5.10;;;4.80;;
11537;SDS011;50159;49.426;11.182;2023-08-17T04:23:13;4.97;;;4.67;;
11537;SDS011;50159;49.426;11.182;2023-08-17T04:25:40;5.37;;;4.97;;
11537;SDS011;50159;49.426;11.182;2023-08-17T04:28:07;5.13;;;4.73;;
11537;SDS011;50159;49.426;11.182;2023-08-17T04:30:34;5.00;;;4.60;;
11537;SDS011;50159;49.426;11.182;2023-08-17T04:33:01;5.87;;;5.37;;
11537;SDS011;50159;49.426;11.182;2023-08-17T04:35:28;5.50;;;5.20;;
11537;SDS011;50159;49.426;11.182;2023-08-17T04:37:55;5.53;;;5.13;;
11537;SDS011;50159;49.426;11.182;2023-08-17T04:40:21;6.13;;;5.73;;
11537;SDS011;50159;49.426;11.182;2023-08-17T04:42:48;5.60;;;5.20;;
11537;SDS011;50159;49.426;11.182;2023-08-17T04:45:15;7.70;;;5.67;;
11537;SDS011;50159;49.426;11.182;2023-08-17T04:47:42;6.00;;;5.57;;
11537;SDS011;50159;49.426;11.182;2023-08-17T04:50:09;6.17;;;5.77;;
11537;SDS011;50159;49.426;11.182;2023-08-17T04:52:36;6.33;;;5.80;;
11537;SDS011;50159;49.426;11.182;2023-08-17T04:55:02;7.37;;;5.47;;
11537;SDS011;50159;49.426;11.182;2023-08-17T04:57:29;6.17;;;5.67;;
11537;SDS011;50159;49.426;11.182;2023-08-17T04:59:56;5.80;;;5.30;;
11537;SDS011;50159;49.426;11.182;2023-08-17T05:02:23;5.70;;;5.20;;
11537;SDS011;50159;49.426;11.182;2023-08-17T05:04:50;6.30;;;5.73;;
11537;SDS011;50159;49.426;11.182;2023-08-17T05:07:16;6.23;;;5.67;;
11537;SDS011;50159;49.426;11.182;2023-08-17T05:09:43;4.87;;;4.57;;
11537;SDS011;50159;49.426;11.182;2023-08-17T05:12:10;5.63;;;5.10;;
11537;SDS011;50159;49.426;11.182;2023-08-17T05:14:37;5.67;;;5.37;;
11537;SDS011;50159;49.426;11.182;2023-08-17T05:17:03;6.00;;;5.37;;
11537;SDS011;50159;49.426;11.182;2023-08-17T05:19:30;6.20;;;5.70;;
11537;SDS011;50159;49.426;11.182;2023-08-17T05:21:57;5.37;;;4.97;;
11537;SDS011;50159;49.426;11.182;2023-08-17T05:24:24;5.53;;;5.17;;
11537;SDS011;50159;49.426;11.182;2023-08-17T05:26:51;5.67;;;5.27;;
11537;SDS011;50159;49.426;11.182;2023-08-17T05:29:17;5.57;;;5.17;;
11537;SDS011;50159;49.426;11.182;2023-08-17T05:31:44;5.37;;;5.00;;
11537;SDS011;50159;49.426;11.182;2023-08-17T05:34:11;4.87;;;4.63;;
11537;SDS011;50159;49.426;11.182;2023-08-17T05:36:38;5.00;;;4.70;;
11537;SDS011;50159;49.426;11.182;2023-08-17T05:39:05;5.50;;;5.10;;
11537;SDS011;50159;49.426;11.182;2023-08-17T05:41:32;7.50;;;5.70;;
11537;SDS011;50159;49.426;11.182;2023-08-17T05:43:58;5.80;;;5.37;;
11537;SDS011;50159;49.426;11.182;2023-08-17T05:46:25;5.50;;;5.10;;
11537;SDS011;50159;49.426;11.182;2023-08-17T05:48:52;5.47;;;5.07;;
11537;SDS011;50159;49.426;11.182;2023-08-17T05:51:19;5.80;;;5.40;;
11537;SDS011;50159;49.426;11.182;2023-08-17T05:53:45;4.77;;;4.47;;
11537;SDS011;50159;49.426;11.182;2023-08-17T05:56:12;4.83;;;4.53;;
11537;SDS011;50159;49.426;11.182;2023-08-17T05:58:39;4.97;;;4.67;;
11537;SDS011;50159;49.426;11.182;2023-08-17T06:01:07;4.87;;;4.57;;
11537;SDS011;50159;49.426;11.182;2023-08-17T06:03:35;4.83;;;4.53;;
11537;SDS011;50159;49.426;11.182;2023-08-17T06:06:03;4.70;;;4.40;;
11537;SDS011;50159;49.426;11.182;2023-08-17T06:08:32;4.73;;;4.43;;
11537;SDS011;50159;49.426;11.182;2023-08-17T06:10:59;4.43;;;4.23;;
11537;SDS011;50159;49.426;11.182;2023-08-17T06:13:25;4.00;;;3.80;;
11537;SDS011;50159;49.426;11.182;2023-08-17T06:15:52;4.47;;;4.27;;
11537;SDS011;50159;49.426;11.182;2023-08-17T06:18:22;3.80;;;3.60;;
11537;SDS011;50159;49.426;11.182;2023-08-17T06:20:48;3.73;;;3.57;;
11537;SDS011;50159;49.426;11.182;2023-08-17T06:23:18;3.47;;;3.37;;
11537;SDS011;50159;49.426;11.182;2023-08-17T06:25:46;3.50;;;3.40;;
11537;SDS011;50159;49.426;11.182;2023-08-17T06:28:12;3.27;;;3.17;;
11537;SDS011;50159;49.426;11.182;2023-08-17T06:30:39;3.70;;;3.50;;
11537;SDS011;50159;49.426;11.182;2023-08-17T06:33:06;3.60;;;3.50;;
11537;SDS011;50159;49.426;11.182;2023-08-17T06:35:33;4.60;;;4.30;;
11537;SDS011;50159;49.426;11.182;2023-08-17T06:37:59;4.40;;;4.10;;
11537;SDS011;50159;49.426;11.182;2023-08-17T06:40:27;4.50;;;4.20;;
11537;SDS011;50159;49.426;11.182;2023-08-17T06:42:53;4.80;;;4.50;;
11537;SDS011;50159;49.426;11.182;2023-08-17T06:45:21;4.80;;;4.50;;
11537;SDS011;50159;49.426;11.182;2023-08-17T06:47:49;4.43;;;4.23;;
11537;SDS011;50159;49.426;11.182;2023-08-17T06:50:15;4.60;;;4.40;;
11537;SDS011;50159;49.426;11.182;2023-08-17T06:52:42;4.53;;;4.33;;
11537;SDS011;50159;49.426;11.182;2023-08-17T06:55:09;4.47;;;4.17;;
11537;SDS011;50159;49.426;11.182;2023-08-17T06:57:39;4.60;;;4.30;;
11537;SDS011;50159;49.426;11.182;2023-08-17T07:00:05;4.60;;;4.30;;
11537;SDS011;50159;49.426;11.182;2023-08-17T07:02:33;5.07;;;4.77;;
11537;SDS011;50159;49.426;11.182;2023-08-17T07:05:17;5.10;;;4.73;;
11537;SDS011;50159;49.426;11.182;2023-08-17T07:07:44;4.87;;;4.47;;
11537;SDS011;50159;49.426;11.182;2023-08-17T07:10:11;5.27;;;4.87;;
11537;SDS011;50159;49.426;11.182;2023-08-17T07:12:38;5.33;;;4.93;;
11537;SDS011;50159;49.426;11.182;2023-08-17T07:15:06;4.90;;;4.60;;
11537;SDS011;50159;49.426;11.182;2023-08-17T07:17:34;6.53;;;5.23;;
11537;SDS011;50159;49.426;11.182;2023-08-17T07:20:00;5.37;;;4.97;;
11537;SDS011;50159;49.426;11.182;2023-08-17T07:22:30;6.47;;;6.00;;
11537;SDS011;50159;49.426;11.182;2023-08-17T07:24:57;5.87;;;5.40;;
11537;SDS011;50159;49.426;11.182;2023-08-17T07:27:24;6.23;;;5.83;;
11537;SDS011;50159;49.426;11.182;2023-08-17T07:29:51;6.20;;;5.67;;
11537;SDS011;50159;49.426;11.182;2023-08-17T07:32:18;6.13;;;5.73;;
11537;SDS011;50159;49.426;11.182;2023-08-17T07:34:45;6.20;;;5.80;;
11537;SDS011;50159;49.426;11.182;2023-08-17T07:37:12;6.37;;;5.87;;
11537;SDS011;50159;49.426;11.182;2023-08-17T07:39:41;6.17;;;5.67;;
11537;SDS011;50159;49.426;11.182;2023-08-17T07:42:08;6.40;;;5.90;;
11537;SDS011;50159;49.426;11.182;2023-08-17T07:44:35;6.83;;;5.67;;
11537;SDS011;50159;49.426;11.182;2023-08-17T07:47:01;6.00;;;5.60;;
11537;SDS011;50159;49.426;11.182;2023-08-17T07:49:28;6.20;;;5.70;;
11537;SDS011;50159;49.426;11.182;2023-08-17T07:51:58;10.23;;;5.43;;
11537;SDS011;50159;49.426;11.182;2023-08-17T07:54:25;5.60;;;5.20;;
11537;SDS011;50159;49.426;11.182;2023-08-17T07:56:52;6.43;;;5.93;;
11537;SDS011;50159;49.426;11.182;2023-08-17T07:59:19;5.67;;;4.70;;
11537;SDS011;50159;49.426;11.182;2023-08-17T08:01:45;5.97;;;5.50;;
11537;SDS011;50159;49.426;11.182;2023-08-17T08:04:12;6.07;;;5.70;;
11537;SDS011;50159;49.426;11.182;2023-08-17T08:06:39;6.00;;;5.60;;
11537;SDS011;50159;49.426;11.182;2023-08-17T08:09:05;6.00;;;5.67;;
11537;SDS011;50159;49.426;11.182;2023-08-17T08:11:33;5.83;;;5.43;;
11537;SDS011;50159;49.426;11.182;2023-08-17T08:14:00;6.13;;;5.63;;
11537;SDS011;50159;49.426;11.182;2023-08-17T08:16:27;6.23;;;5.63;;
11537;SDS011;50159;49.426;11.182;2023-08-17T08:18:57;6.10;;;5.70;;
11537;SDS011;50159;49.426;11.182;2023-08-17T08:21:24;5.77;;;5.37;;
11537;SDS011;50159;49.426;11.182;2023-08-17T08:23:52;5.03;;;4.73;;
11537;SDS011;50159;49.426;11.182;2023-08-17T08:26:18;5.87;;;5.37;;
11537;SDS011;50159;49.426;11.182;2023-08-17T08:28:45;5.73;;;5.33;;
11537;SDS011;50159;49.426;11.182;2023-08-17T08:31:12;5.47;;;4.90;;
11537;SDS011;50159;49.426;11.182;2023-08-17T08:33:39;6.90;;;5.33;;
11537;SDS011;50159;49.426;11.182;2023-08-17T08:36:05;6.07;;;5.67;;
11537;SDS011;50159;49.426;11.182;2023-08-17T08:38:32;5.80;;;5.40;;
11537;SDS011;50159;49.426;11.182;2023-08-17T08:40:59;5.80;;;5.33;;
11537;SDS011;50159;49.426;11.182;2023-08-17T08:43:28;5.20;;;4.80;;
11537;SDS011;50159;49.426;11.182;2023-08-17T08:45:55;6.00;;;5.57;;
11537;SDS011;50159;49.426;11.182;2023-08-17T08:48:24;7.23;;;5.70;;
11537;SDS011;50159;49.426;11.182;2023-08-17T08:50:54;7.80;;;5.63;;
11537;SDS011;50159;49.426;11.182;2023-08-17T08:53:24;6.43;;;5.87;;
11537;SDS011;50159;49.426;11.182;2023-08-17T08:56:01;5.80;;;5.40;;
11537;SDS011;50159;49.426;11.182;2023-08-17T08:58:31;6.30;;;5.73;;
11537;SDS011;50159;49.426;11.182;2023-08-17T09:00:59;6.00;;;5.60;;
11537;SDS011;50159;49.426;11.182;2023-08-17T09:03:27;5.80;;;5.40;;
11537;SDS011;50159;49.426;11.182;2023-08-17T09:05:56;5.50;;;5.10;;
11537;SDS011;50159;49.426;11.182;2023-08-17T09:08:27;6.10;;;5.70;;
11537;SDS011;50159;49.426;11.182;2023-08-17T09:10:55;6.10;;;5.70;;
11537;SDS011;50159;49.426;11.182;2023-08-17T09:13:22;5.80;;;5.50;;
11537;SDS011;50159;49.426;11.182;2023-08-17T09:15:49;6.63;;;6.00;;
11537;SDS011;50159;49.426;11.182;2023-08-17T09:18:16;6.43;;;5.93;;
11537;SDS011;50159;49.426;11.182;2023-08-17T09:20:45;6.27;;;5.83;;
11537;SDS011;50159;49.426;11.182;2023-08-17T09:25:43;6.10;;;5.70;;
11537;SDS011;50159;49.426;11.182;2023-08-17T09:28:11;6.03;;;5.43;;
11537;SDS011;50159;49.426;11.182;2023-08-17T09:33:18;6.50;;;6.10;;
11537;SDS011;50159;49.426;11.182;2023-08-17T09:35:46;6.60;;;6.13;;
11537;SDS011;50159;49.426;11.182;2023-08-17T09:38:12;6.60;;;6.10;;
11537;SDS011;50159;49.426;11.182;2023-08-17T09:40:39;5.90;;;5.50;;
11537;SDS011;50159;49.426;11.182;2023-08-17T09:43:06;5.50;;;5.10;;
11537;SDS011;50159;49.426;11.182;2023-08-17T09:45:33;5.97;;;5.40;;
11537;SDS011;50159;49.426;11.182;2023-08-17T09:47:59;6.47;;;6.03;;
11537;SDS011;50159;49.426;11.182;2023-08-17T09:50:29;6.27;;;5.87;;
11537;SDS011;50159;49.426;11.182;2023-08-17T09:52:55;6.40;;;5.90;;
11537;SDS011;50159;49.426;11.182;2023-08-17T09:55:22;6.73;;;6.23;;
11537;SDS011;50159;49.426;11.182;2023-08-17T09:57:49;6.80;;;6.10;;
11537;SDS011;50159;49.426;11.182;2023-08-17T10:00:20;6.17;;;5.77;;
11537;SDS011;50159;49.426;11.182;2023-08-17T10:02:49;7.20;;;6.70;;
11537;SDS011;50159;49.426;11.182;2023-08-17T10:05:18;6.00;;;5.60;;
11537;SDS011;50159;49.426;11.182;2023-08-17T10:07:53;5.37;;;5.07;;
11537;SDS011;50159;49.426;11.182;2023-08-17T10:10:25;6.40;;;5.80;;
11537;SDS011;50159;49.426;11.182;2023-08-17T10:15:44;5.70;;;5.30;;
11537;SDS011;50159;49.426;11.182;2023-08-17T10:18:37;6.87;;;5.47;;
11537;SDS011;50159;49.426;11.182;2023-08-17T10:21:22;6.43;;;5.93;;
11537;SDS011;50159;49.426;11.182;2023-08-17T10:24:03;6.33;;;5.93;;
11537;SDS011;50159;49.426;11.182;2023-08-17T10:26:32;5.80;;;5.40;;
11537;SDS011;50159;49.426;11.182;2023-08-17T10:28:59;6.07;;;5.67;;
11537;SDS011;50159;49.426;11.182;2023-08-17T10:31:38;6.43;;;5.20;;
11537;SDS011;50159;49.426;11.182;2023-08-17T10:34:05;6.10;;;5.60;;
11537;SDS011;50159;49.426;11.182;2023-08-17T10:36:32;5.93;;;5.43;;
11537;SDS011;50159;49.426;11.182;2023-08-17T10:41:54;5.97;;;5.47;;
11537;SDS011;50159;49.426;11.182;2023-08-17T10:44:42;6.23;;;5.77;;
11537;SDS011;50159;49.426;11.182;2023-08-17T10:47:20;6.20;;;5.80;;
11537;SDS011;50159;49.426;11.182;2023-08-17T10:50:05;6.20;;;5.80;;
11537;SDS011;50159;49.426;11.182;2023-08-17T10:52:47;5.87;;;5.47;;
11537;SDS011;50159;49.426;11.182;2023-08-17T10:55:15;7.03;;;6.43;;
11537;SDS011;50159;49.426;11.182;2023-08-17T10:57:42;6.30;;;5.93;;
11537;SDS011;50159;49.426;11.182;2023-08-17T11:00:22;5.97;;;5.57;;
11537;SDS011;50159;49.426;11.182;2023-08-17T11:02:54;5.80;;;5.50;;
11537;SDS011;50159;49.426;11.182;2023-08-17T11:08:05;7.13;;;6.53;;
11537;SDS011;50159;49.426;11.182;2023-08-17T11:10:33;5.63;;;5.23;;
11537;SDS011;50159;49.426;11.182;2023-08-17T11:13:01;9.13;;;5.63;;
11537;SDS011;50159;49.426;11.182;2023-08-17T11:15:35;6.03;;;5.53;;
11537;SDS011;50159;49.426;11.182;2023-08-17T11:18:09;6.57;;;5.97;;
11537;SDS011;50159;49.426;11.182;2023-08-17T11:20:37;5.83;;;5.53;;
11537;SDS011;50159;49.426;11.182;2023-08-17T11:23:06;5.93;;;5.53;;
11537;SDS011;50159;49.426;11.182;2023-08-17T11:25:34;5.20;;;4.90;;
11537;SDS011;50159;49.426;11.182;2023-08-17T11:28:01;6.50;;;6.10;;
11537;SDS011;50159;49.426;11.182;2023-08-17T11:30:28;6.57;;;5.97;;
11537;SDS011;50159;49.426;11.182;2023-08-17T11:32:56;5.63;;;5.33;;
11537;SDS011;50159;49.426;11.182;2023-08-17T11:35:23;5.47;;;5.07;;
11537;SDS011;50159;49.426;11.182;2023-08-17T11:37:49;5.90;;;5.50;;
11537;SDS011;50159;49.426;11.182;2023-08-17T11:40:16;5.90;;;5.40;;
11537;SDS011;50159;49.426;11.182;2023-08-17T11:42:44;5.47;;;5.17;;
11537;SDS011;50159;49.426;11.182;2023-08-17T11:45:12;6.47;;;5.80;;
11537;SDS011;50159;49.426;11.182;2023-08-17T11:47:39;6.00;;;5.60;;
11537;SDS011;50159;49.426;11.182;2023-08-17T11:50:10;6.20;;;5.80;;
11537;SDS011;50159;49.426;11.182;2023-08-17T11:52:46;6.03;;;5.63;;
11537;SDS011;50159;49.426;11.182;2023-08-17T11:55:15;5.80;;;5.30;;
11537;SDS011;50159;49.426;11.182;2023-08-17T11:57:46;5.73;;;5.33;;
11537;SDS011;50159;49.426;11.182;2023-08-17T12:00:17;5.50;;;5.10;;
11537;SDS011;50159;49.426;11.182;2023-08-17T12:02:52;6.23;;;5.73;;
11537;SDS011;50159;49.426;11.182;2023-08-17T12:05:23;5.37;;;5.00;;
11537;SDS011;50159;49.426;11.182;2023-08-17T12:07:52;5.63;;;5.23;;
11537;SDS011;50159;49.426;11.182;2023-08-17T12:10:19;5.40;;;4.90;;
11537;SDS011;50159;49.426;11.182;2023-08-17T12:12:48;5.83;;;5.43;;
11537;SDS011;50159;49.426;11.182;2023-08-17T12:15:16;5.73;;;5.33;;
11537;SDS011;50159;49.426;11.182;2023-08-17T12:17:46;5.83;;;5.33;;
11537;SDS011;50159;49.426;11.182;2023-08-17T12:20:15;5.83;;;5.33;;
11537;SDS011;50159;49.426;11.182;2023-08-17T12:22:43;6.10;;;5.70;;
11537;SDS011;50159;49.426;11.182;2023-08-17T12:25:10;6.17;;;5.67;;
11537;SDS011;50159;49.426;11.182;2023-08-17T12:27:37;6.03;;;5.63;;
11537;SDS011;50159;49.426;11.182;2023-08-17T12:30:11;5.47;;;5.00;;
11537;SDS011;50159;49.426;11.182;2023-08-17T12:32:39;5.90;;;5.50;;
11537;SDS011;50159;49.426;11.182;2023-08-17T12:35:06;4.77;;;4.57;;
11537;SDS011;50159;49.426;11.182;2023-08-17T12:37:33;5.40;;;4.97;;
11537;SDS011;50159;49.426;11.182;2023-08-17T12:39:59;5.90;;;5.50;;
11537;SDS011;50159;49.426;11.182;2023-08-17T12:42:26;7.10;;;5.07;;
11537;SDS011;50159;49.426;11.182;2023-08-17T12:44:54;7.07;;;5.63;;
11537;SDS011;50159;49.426;11.182;2023-08-17T12:47:20;5.20;;;4.73;;
11537;SDS011;50159;49.426;11.182;2023-08-17T12:49:47;5.83;;;5.40;;
11537;SDS011;50159;49.426;11.182;2023-08-17T12:52:14;5.30;;;4.90;;
11537;SDS011;50159;49.426;11.182;2023-08-17T12:54:40;5.37;;;4.97;;
11537;SDS011;50159;49.426;11.182;2023-08-17T12:57:07;5.00;;;4.70;;
11537;SDS011;50159;49.426;11.182;2023-08-17T12:59:38;4.87;;;4.57;;
11537;SDS011;50159;49.426;11.182;2023-08-17T13:02:05;5.10;;;4.67;;
11537;SDS011;50159;49.426;11.182;2023-08-17T13:04:32;4.87;;;4.47;;
11537;SDS011;50159;49.426;11.182;2023-08-17T13:06:58;5.33;;;4.83;;
11537;SDS011;50159;49.426;11.182;2023-08-17T13:09:25;7.17;;;5.37;;
11537;SDS011;50159;49.426;11.182;2023-08-17T13:11:52;4.87;;;4.57;;
11537;SDS011;50159;49.426;11.182;2023-08-17T13:14:18;5.47;;;5.17;;
11537;SDS011;50159;49.426;11.182;2023-08-17T13:16:45;5.03;;;4.63;;
11537;SDS011;50159;49.426;11.182;2023-08-17T13:19:12;4.77;;;4.47;;
11537;SDS011;50159;49.426;11.182;2023-08-17T13:21:39;4.87;;;4.57;;
11537;SDS011;50159;49.426;11.182;2023-08-17T13:24:08;5.33;;;4.20;;
11537;SDS011;50159;49.426;11.182;2023-08-17T13:26:35;4.83;;;4.53;;
11537;SDS011;50159;49.426;11.182;2023-08-17T13:29:02;4.80;;;4.47;;
11537;SDS011;50159;49.426;11.182;2023-08-17T13:31:29;5.23;;;4.70;;
11537;SDS011;50159;49.426;11.182;2023-08-17T13:33:55;6.43;;;4.83;;
11537;SDS011;50159;49.426;11.182;2023-08-17T13:36:22;5.07;;;4.63;;
11537;SDS011;50159;49.426;11.182;2023-08-17T13:38:49;4.63;;;4.23;;
11537;SDS011;50159;49.426;11.182;2023-08-17T13:41:16;5.93;;;4.30;;
11537;SDS011;50159;49.426;11.182;2023-08-17T13:43:42;5.53;;;5.03;;
11537;SDS011;50159;49.426;11.182;2023-08-17T13:46:09;5.60;;;4.97;;
11537;SDS011;50159;49.426;11.182;2023-08-17T13:48:36;5.27;;;4.87;;
11537;SDS011;50159;49.426;11.182;2023-08-17T13:51:05;7.33;;;4.87;;
11537;SDS011;50159;49.426;11.182;2023-08-17T13:53:31;4.77;;;4.50;;
11537;SDS011;50159;49.426;11.182;2023-08-17T13:55:58;4.30;;;4.10;;
11537;SDS011;50159;49.426;11.182;2023-08-17T13:58:25;4.90;;;4.60;;
11537;SDS011;50159;49.426;11.182;2023-08-17T14:00:51;5.37;;;4.87;;
11537;SDS011;50159;49.426;11.182;2023-08-17T14:03:18;5.00;;;4.60;;
11537;SDS011;50159;49.426;11.182;2023-08-17T14:05:45;5.20;;;4.80;;
11537;SDS011;50159;49.426;11.182;2023-08-17T14:08:12;5.13;;;4.13;;
11537;SDS011;50159;49.426;11.182;2023-08-17T14:10:39;4.47;;;4.23;;
11537;SDS011;50159;49.426;11.182;2023-08-17T14:13:06;4.77;;;4.50;;
11537;SDS011;50159;49.426;11.182;2023-08-17T14:15:33;5.13;;;4.03;;
11537;SDS011;50159;49.426;11.182;2023-08-17T14:17:59;5.37;;;4.97;;
11537;SDS011;50159;49.426;11.182;2023-08-17T14:20:26;4.40;;;4.00;;
11537;SDS011;50159;49.426;11.182;2023-08-17T14:22:53;4.67;;;4.37;;
11537;SDS011;50159;49.426;11.182;2023-08-17T14:25:20;4.80;;;4.50;;
11537;SDS011;50159;49.426;11.182;2023-08-17T14:27:47;4.10;;;3.90;;
11537;SDS011;50159;49.426;11.182;2023-08-17T14:30:15;3.97;;;3.77;;
11537;SDS011;50159;49.426;11.182;2023-08-17T14:32:41;4.13;;;3.83;;
11537;SDS011;50159;49.426;11.182;2023-08-17T14:35:08;4.43;;;4.23;;
11537;SDS011;50159;49.426;11.182;2023-08-17T14:37:38;4.00;;;3.80;;
11537;SDS011;50159;49.426;11.182;2023-08-17T14:40:05;4.53;;;4.07;;
11537;SDS011;50159;49.426;11.182;2023-08-17T14:42:33;3.97;;;3.77;;
11537;SDS011;50159;49.426;11.182;2023-08-17T14:45:00;4.07;;;3.87;;
11537;SDS011;50159;49.426;11.182;2023-08-17T14:47:32;4.03;;;3.80;;
11537;SDS011;50159;49.426;11.182;2023-08-17T14:49:59;4.43;;;4.20;;
11537;SDS011;50159;49.426;11.182;2023-08-17T14:52:27;4.23;;;4.03;;